Time;durP1;ratioP1;P1;durP2;ratioP2;P2;SDS_P1;SDS_P2;PMS_P1;PMS_P2;Temp;Humidity;BMP_temperature;BMP_pressure;BME280_temperature;BME280_humidity;BME280_pressure;Samples;Min_cycle;Max_cycle;Signal;HPM_P1;HPM_P2
2022/09/03 00:01:26;;;;;;;;;8.00;7.00;;;;;22.12;64.23;100370.78;5093996;28;45380;-83
2022/09/03 00:03:56;;;;;;;;;9.00;8.25;;;;;22.07;63.82;100361.91;5094722;28;45219;-82
2022/09/03 00:06:33;;;;;;;;;6.75;6.75;;;;;22.00;64.10;100354.91;5094723;28;45111;-83
2022/09/03 00:09:11;;;;;;;;;5.00;5.00;;;;;21.97;63.95;100351.38;5094163;28;46308;-82
2022/09/03 00:11:59;;;;;;;;;6.25;6.00;;;;;22.03;63.81;100370.91;5092730;28;45016;-83
2022/09/03 00:14:38;;;;;;;;;5.00;5.00;;;;;21.98;63.96;100356.72;5094544;28;44921;-83
2022/09/03 00:17:09;;;;;;;;;5.75;5.00;;;;;21.99;64.15;100358.50;5094065;28;45267;-83
2022/09/03 00:19:41;;;;;;;;;6.00;6.00;;;;;21.92;64.15;100348.81;5094243;28;45835;-83
2022/09/03 00:22:16;;;;;;;;;5.00;5.00;;;;;21.98;64.49;100356.72;5093696;28;45072;-82
2022/09/03 00:24:44;;;;;;;;;6.25;5.00;;;;;21.89;64.64;100344.41;5093822;28;44883;-83
2022/09/03 00:27:24;;;;;;;;;8.75;6.00;;;;;21.99;64.30;100361.16;5091638;28;45121;-83
2022/09/03 00:29:58;;;;;;;;;5.75;5.25;;;;;21.98;64.09;100369.22;5094155;28;45059;-83
2022/09/03 00:32:33;;;;;;;;;5.25;5.25;;;;;21.98;64.12;100359.41;5075328;28;45353;-83
2022/09/03 00:35:04;;;;;;;;;3.50;3.25;;;;;21.97;64.24;100360.31;5094234;28;45203;-83
2022/09/03 00:37:31;;;;;;;;;7.00;6.25;;;;;21.88;64.59;100350.66;5093860;28;45091;-83
2022/09/03 00:39:56;;;;;;;;;5.25;5.25;;;;;21.84;64.91;100334.69;5093754;28;45125;-82
2022/09/03 00:42:46;;;;;;;;;5.25;5.25;;;;;21.85;64.69;100339.13;5092580;28;45115;-83
2022/09/03 00:45:32;;;;;;;;;6.75;6.75;;;;;21.90;64.98;100350.63;5093941;28;44955;-82
2022/09/03 00:48:10;;;;;;;;;6.00;5.50;;;;;21.94;64.81;100362.16;5093597;28;44910;-82
2022/09/03 00:51:03;;;;;;;;;8.00;8.00;;;;;21.92;64.60;100356.84;5093512;28;45668;-83
2022/09/03 00:53:31;;;;;;;;;5.50;5.25;;;;;21.93;64.80;100357.72;5073202;28;45162;-82
2022/09/03 00:56:57;;;;;;;;;6.25;5.75;;;;;21.83;65.37;100348.97;5093337;28;45057;-83
2022/09/03 00:59:59;;;;;;;;;5.00;5.00;;;;;21.89;65.47;100359.56;5010730;28;45077;-83
2022/09/03 01:02:34;;;;;;;;;6.25;6.00;;;;;21.85;65.50;100360.53;5093269;28;45084;-82
2022/09/03 01:05:38;;;;;;;;;5.00;5.00;;;;;21.83;65.41;100351.66;5093660;28;45164;-82
2022/09/03 01:08:15;;;;;;;;;6.50;6.00;;;;;21.89;65.29;100362.25;5091303;27;44994;-82
2022/09/03 01:11:09;;;;;;;;;6.00;6.00;;;;;21.77;65.45;100351.75;5091469;28;45249;-83
2022/09/03 01:13:49;;;;;;;;;6.00;5.75;;;;;21.81;65.40;100350.78;5051203;28;45176;-83
2022/09/03 01:16:23;;;;;;;;;5.50;5.00;;;;;21.84;65.88;100366.78;5092916;28;45562;-83
2022/09/03 01:19:01;;;;;;;;;7.50;7.00;;;;;21.74;65.89;100359.84;5093172;28;45044;-83
2022/09/03 01:21:50;;;;;;;;;6.00;6.00;;;;;21.81;66.34;100369.50;5092505;28;45203;-84
2022/09/03 01:24:58;;;;;;;;;6.00;5.00;;;;;21.71;66.05;100357.22;5092949;28;45848;-83
2022/09/03 01:27:57;;;;;;;;;7.00;7.00;;;;;21.79;65.94;100369.53;5092134;28;45131;-83
2022/09/03 01:30:23;;;;;;;;;9.50;7.25;;;;;21.76;66.64;100363.34;5074872;28;44958;-82
2022/09/03 01:33:01;;;;;;;;;7.50;6.75;;;;;21.51;66.56;100329.00;5092850;28;45056;-83
2022/09/03 01:35:52;;;;;;;;;8.00;7.75;;;;;21.73;66.71;100366.09;5092613;28;45378;-83
2022/09/03 01:38:43;;;;;;;;;8.00;7.00;;;;;21.71;66.71;100370.59;5091772;27;45453;-83
2022/09/03 01:44:38;;;;;;;;;7.00;6.25;;;;;21.59;67.18;100360.97;5093100;28;44967;-83
2022/09/03 01:47:12;;;;;;;;;7.25;7.00;;;;;21.57;67.07;100355.63;5092629;28;46398;-82
2022/09/03 01:49:47;;;;;;;;;8.00;7.75;;;;;21.67;67.43;100372.41;5092968;28;45521;-81
2022/09/03 01:52:25;;;;;;;;;7.00;6.75;;;;;21.56;67.51;100348.53;5090681;28;45000;-82
2022/09/03 01:54:59;;;;;;;;;8.25;7.75;;;;;21.67;67.24;100361.72;5092119;28;44868;-82
2022/09/03 01:57:47;;;;;;;;;9.00;8.25;;;;;21.55;68.01;100340.53;5090961;28;46021;-82
2022/09/03 02:00:19;;;;;;;;;8.00;8.00;;;;;21.68;67.83;100373.31;5092788;28;45614;-82
2022/09/03 02:02:49;;;;;;;;;8.75;8.50;;;;;21.66;68.09;100372.44;5092261;28;44930;-82
2022/09/03 02:05:34;;;;;;;;;8.00;8.00;;;;;21.52;68.06;100346.81;5092415;28;45023;-82
2022/09/03 02:08:08;;;;;;;;;8.00;7.00;;;;;21.62;68.28;100363.59;5092451;28;45025;-83
2022/09/03 02:10:45;;;;;;;;;11.50;10.25;;;;;21.60;68.44;100370.78;5091340;28;45572;-82
2022/09/03 02:13:21;;;;;;;;;8.00;8.00;;;;;21.54;68.49;100353.03;5074542;28;45226;-83
2022/09/03 02:15:50;;;;;;;;;7.50;7.50;;;;;21.50;68.74;100348.63;5073763;28;45059;-82
2022/09/03 02:18:24;;;;;;;;;7.50;7.50;;;;;21.63;68.83;100365.38;5091975;28;46291;-83
2022/09/03 02:20:53;;;;;;;;;12.00;11.00;;;;;21.63;68.83;100370.72;5092231;28;45109;-82
2022/09/03 02:23:18;;;;;;;;;8.75;8.75;;;;;21.63;68.60;100371.59;5092981;28;45133;-83
2022/09/03 02:25:49;;;;;;;;;9.00;9.00;;;;;21.63;69.34;100376.06;5090291;28;45466;-82
2022/09/03 02:28:15;;;;;;;;;11.50;10.50;;;;;21.58;69.60;100362.78;5073367;28;46237;-83
2022/09/03 02:30:41;;;;;;;;;9.00;9.00;;;;;21.55;69.40;100365.50;5092187;28;45474;-83
2022/09/03 02:33:07;;;;;;;;;10.00;10.00;;;;;21.47;69.27;100345.13;5091783;28;45010;-82
2022/09/03 02:35:33;;;;;;;;;9.25;8.75;;;;;21.60;69.72;100368.09;5092227;28;45223;-83
2022/09/03 02:38:12;;;;;;;;;9.00;9.00;;;;;21.60;69.75;100368.09;5091732;28;45156;-83
2022/09/03 02:40:38;;;;;;;;;11.50;10.50;;;;;21.49;69.81;100357.56;5090996;28;45457;-83
2022/09/03 02:43:09;;;;;;;;;11.50;10.50;;;;;21.45;69.69;100342.50;5092075;28;45028;-82
2022/09/03 02:45:40;;;;;;;;;12.75;11.75;;;;;21.56;69.84;100363.69;5073389;28;45163;-83
2022/09/03 02:48:09;;;;;;;;;11.75;11.00;;;;;21.48;70.02;100342.44;5091416;28;45249;-83
2022/09/03 02:50:42;;;;;;;;;11.75;11.00;;;;;21.58;70.11;100364.56;5091424;27;45158;-83
2022/09/03 02:53:08;;;;;;;;;10.25;10.25;;;;;21.58;70.32;100373.47;5091701;28;44950;-83
2022/09/03 02:55:34;;;;;;;;;10.75;9.50;;;;;21.57;69.94;100369.00;5090830;28;45029;-83
2022/09/03 02:57:59;;;;;;;;;12.50;11.75;;;;;21.56;70.08;100377.94;5092024;28;45144;-83
2022/09/03 03:00:24;;;;;;;;;10.50;9.50;;;;;21.48;70.51;100366.50;5091803;28;45029;-83
2022/09/03 03:02:51;;;;;;;;;10.25;10.00;;;;;21.37;70.52;100352.41;5091867;28;44961;-83
2022/09/03 03:05:23;;;;;;;;;8.75;8.75;;;;;21.46;70.35;100362.97;5091864;28;45419;-83
2022/09/03 03:07:49;;;;;;;;;13.75;13.25;;;;;21.47;70.49;100370.06;5091641;28;45633;-83
2022/09/03 03:10:14;;;;;;;;;12.00;10.00;;;;;21.34;71.05;100352.47;5091009;28;45077;-83
2022/09/03 03:12:39;;;;;;;;;11.00;11.00;;;;;21.43;70.87;100376.41;5090016;28;44909;-83
2022/09/03 03:15:05;;;;;;;;;12.00;11.00;;;;;21.32;70.79;100362.28;5091394;28;55858;-83
2022/09/03 03:17:30;;;;;;;;;10.50;9.75;;;;;21.38;71.08;100370.25;5091075;28;45879;-83
2022/09/03 03:19:56;;;;;;;;;13.50;12.50;;;;;21.37;71.36;100371.13;5091428;28;44982;-82
2022/09/03 03:22:21;;;;;;;;;11.00;11.00;;;;;21.32;71.31;100354.28;5072842;28;50745;-83
2022/09/03 03:24:49;;;;;;;;;10.00;9.67;;;;;21.34;71.51;100355.16;5091163;28;46644;-83
2022/09/03 03:27:14;;;;;;;;;10.50;10.25;;;;;21.36;71.52;100356.00;5089062;28;46166;-83
2022/09/03 03:29:40;;;;;;;;;16.25;13.25;;;;;21.40;71.43;100373.75;5073034;28;45107;-83
2022/09/03 03:32:05;;;;;;;;;11.67;11.00;;;;;21.38;71.47;100364.91;5091379;28;49880;-83
2022/09/03 03:34:30;;;;;;;;;12.33;11.00;;;;;21.32;71.71;100364.97;5090586;28;58990;-83
2022/09/03 03:36:55;;;;;;;;;11.67;11.67;;;;;21.33;71.71;100358.75;5090832;28;59572;-83
2022/09/03 03:39:21;;;;;;;;;10.00;10.00;;;;;21.28;71.55;100358.78;5090007;28;65249;-83
2022/09/03 03:41:46;;;;;;;;;13.67;13.00;;;;;21.29;72.13;100363.22;5088473;28;53115;-83
2022/09/03 03:44:11;;;;;;;;;12.00;10.75;;;;;21.25;72.15;100355.25;5091141;28;50882;-82
2022/09/03 03:46:39;;;;;;;;;11.75;10.75;;;;;21.27;72.08;100356.97;5091322;28;45143;-83
2022/09/03 03:49:07;;;;;;;;;13.75;13.00;;;;;21.22;72.10;100358.84;5090985;28;45404;-82
2022/09/03 03:51:34;;;;;;;;;13.25;12.25;;;;;21.25;71.98;100368.63;5091276;28;45016;-83
2022/09/03 03:54:00;;;;;;;;;10.75;9.75;;;;;21.15;72.51;100354.50;5090980;28;45053;-83
2022/09/03 03:56:26;;;;;;;;;14.25;12.75;;;;;21.07;72.83;100332.34;5090359;28;45179;-83
2022/09/03 03:58:52;;;;;;;;;11.00;10.75;;;;;21.18;72.59;100361.59;5091324;28;44961;-83
2022/09/03 04:01:21;;;;;;;;;11.25;11.25;;;;;20.98;72.51;100329.81;5090764;27;45068;-83
2022/09/03 04:03:47;;;;;;;;;11.50;11.25;;;;;21.09;72.78;100351.94;5094408;28;45026;-83
2022/09/03 04:06:15;;;;;;;;;11.50;11.00;;;;;21.16;72.58;100363.41;5094325;28;45269;-83
2022/09/03 04:08:42;;;;;;;;;10.75;10.00;;;;;21.15;72.83;100361.66;5094115;28;45463;-82
2022/09/03 04:11:10;;;;;;;;;10.00;10.00;;;;;21.14;72.64;100360.78;5092533;28;44950;-82
2022/09/03 04:13:39;;;;;;;;;10.75;10.75;;;;;21.03;72.58;100342.22;5094368;28;45047;-82
2022/09/03 04:16:17;;;;;;;;;12.00;11.25;;;;;21.10;72.65;100354.59;5093372;28;45566;-83
2022/09/03 04:18:43;;;;;;;;;13.00;12.50;;;;;20.94;73.05;100334.34;5094173;28;45415;-82
2022/09/03 04:21:11;;;;;;;;;12.50;10.75;;;;;20.95;73.14;100336.09;5094292;28;45231;-83
2022/09/03 04:23:43;;;;;;;;;11.25;10.25;;;;;21.09;73.12;100358.16;5093854;28;45165;-83
2022/09/03 04:26:10;;;;;;;;;9.00;9.00;;;;;21.09;72.99;100360.84;5091845;28;45097;-82
2022/09/03 04:28:36;;;;;;;;;11.75;11.00;;;;;21.10;73.12;100353.69;5093765;28;45167;-82
2022/09/03 04:31:07;;;;;;;;;13.25;12.00;;;;;21.05;73.16;100348.41;5094020;28;44920;-81
2022/09/03 04:33:34;;;;;;;;;9.25;9.25;;;;;21.08;73.13;100358.16;5094449;28;44941;-83
2022/09/03 04:36:10;;;;;;;;;11.75;11.25;;;;;21.07;72.99;100351.06;5093348;28;45217;-82
2022/09/03 04:38:38;;;;;;;;;10.75;10.75;;;;;21.06;73.17;100352.84;5093289;28;45058;-81
2022/09/03 04:41:05;;;;;;;;;10.00;10.00;;;;;20.84;73.56;100314.00;5092562;28;45182;-81
2022/09/03 04:43:30;;;;;;;;;10.00;10.00;;;;;20.50;73.49;100265.53;5092192;28;44948;-82
2022/09/03 04:46:01;;;;;;;;;12.75;10.75;;;;;20.89;73.21;100321.97;5093386;28;45395;-83
2022/09/03 04:48:28;;;;;;;;;11.50;11.00;;;;;20.97;73.66;100344.97;5093895;28;45284;-81
2022/09/03 04:51:04;;;;;;;;;10.50;10.00;;;;;20.99;73.47;100356.53;5093869;28;44911;-82
2022/09/03 04:53:29;;;;;;;;;9.00;9.00;;;;;20.92;73.70;100345.94;5093252;28;45673;-82
2022/09/03 04:55:54;;;;;;;;;9.25;9.25;;;;;20.93;73.51;100348.56;5091254;28;45121;-82
2022/09/03 04:58:20;;;;;;;;;10.33;10.33;;;;;20.93;73.88;100343.25;5092954;28;58508;-82
2022/09/03 05:00:45;;;;;;;;;10.33;9.33;;;;;20.95;73.54;100352.13;5093482;28;47005;-83
2022/09/03 05:03:10;;;;;;;;;10.00;10.00;;;;;20.95;73.80;100346.78;5075145;28;45916;-81
2022/09/03 05:05:35;;;;;;;;;10.00;10.00;;;;;20.95;73.69;100360.16;5093027;28;45491;-83
2022/09/03 05:08:01;;;;;;;;;10.00;10.00;;;;;20.84;73.39;100348.75;5092731;28;45066;-82
2022/09/03 05:10:27;;;;;;;;;10.75;10.75;;;;;20.73;73.32;100329.28;5091648;28;45140;-82
2022/09/03 05:13:04;;;;;;;;;10.25;10.25;;;;;20.93;73.05;100364.59;5091665;27;45146;-83
2022/09/03 05:15:31;;;;;;;;;10.00;9.50;;;;;20.93;73.73;100375.28;5092833;28;45234;-83
2022/09/03 05:18:01;;;;;;;;;10.50;10.50;;;;;20.81;73.78;100356.78;5093010;28;45073;-82
2022/09/03 05:20:28;;;;;;;;;9.00;8.25;;;;;20.87;73.78;100378.06;5092982;28;44878;-83
2022/09/03 05:22:54;;;;;;;;;11.00;11.00;;;;;20.80;74.30;100368.38;5093288;28;45136;-82
2022/09/03 05:25:19;;;;;;;;;12.25;12.25;;;;;20.84;73.99;100383.47;5092620;28;45515;-82
2022/09/03 05:27:45;;;;;;;;;10.00;10.00;;;;;20.71;73.76;100366.69;5074050;28;45030;-82
2022/09/03 05:30:11;;;;;;;;;8.75;8.75;;;;;20.81;74.25;100379.03;5093097;28;45066;-83
2022/09/03 05:32:36;;;;;;;;;10.00;9.50;;;;;20.80;74.15;100382.63;5093360;28;45068;-82
2022/09/03 05:35:03;;;;;;;;;9.00;8.75;;;;;20.79;74.17;100385.31;5092409;28;46896;-82
2022/09/03 05:37:29;;;;;;;;;8.75;8.75;;;;;20.77;74.42;100382.63;5092835;28;44866;-82
2022/09/03 05:39:54;;;;;;;;;10.67;10.33;;;;;20.76;74.38;100386.22;5092365;28;60138;-83
2022/09/03 05:42:20;;;;;;;;;10.00;9.33;;;;;20.64;74.60;100357.00;5090287;28;56900;-83
2022/09/03 05:44:48;;;;;;;;;12.75;12.25;;;;;20.86;74.66;100392.31;5092672;28;45068;-83
2022/09/03 05:47:14;;;;;;;;;12.75;12.25;;;;;20.78;74.36;100378.19;5092414;28;45227;-82
2022/09/03 05:49:40;;;;;;;;;9.25;9.00;;;;;20.76;74.85;100372.88;5093293;28;44970;-83
2022/09/03 05:52:05;;;;;;;;;8.25;7.75;;;;;20.87;74.49;100397.63;5092339;28;45154;-81
2022/09/03 05:54:30;;;;;;;;;10.50;10.50;;;;;20.77;73.90;100377.28;5092178;28;45056;-81
2022/09/03 05:56:56;;;;;;;;;10.50;10.25;;;;;20.87;74.25;100396.75;5091659;28;45134;-82
2022/09/03 05:59:21;;;;;;;;;10.33;10.00;;;;;20.79;74.26;100390.66;5092791;28;46215;-81
2022/09/03 06:01:48;;;;;;;;;10.33;10.33;;;;;20.86;73.50;100405.69;5092234;28;50230;-82
2022/09/03 06:04:15;;;;;;;;;11.75;10.50;;;;;20.86;73.54;100414.56;5092228;28;45164;-81
2022/09/03 06:06:42;;;;;;;;;16.50;14.75;;;;;20.83;73.52;100417.28;5091458;28;45437;-81
2022/09/03 06:09:13;;;;;;;;;11.25;10.50;;;;;20.78;73.70;100405.75;5092205;28;45100;-81
2022/09/03 06:11:39;;;;;;;;;10.75;10.25;;;;;20.79;73.11;100417.38;5071141;28;44962;-81
2022/09/03 06:14:07;;;;;;;;;11.75;10.75;;;;;20.79;74.00;100417.38;5090753;28;47351;-82
2022/09/03 06:16:35;;;;;;;;;12.25;11.00;;;;;20.70;74.04;100402.34;5091959;28;45076;-82
2022/09/03 06:19:02;;;;;;;;;10.50;10.50;;;;;20.87;73.64;100423.47;5092416;28;44971;-82
2022/09/03 06:21:28;;;;;;;;;14.50;14.50;;;;;20.86;73.54;100421.72;5092088;28;44992;-82
2022/09/03 06:23:56;;;;;;;;;14.75;13.50;;;;;20.77;73.48;100405.78;5091767;28;45887;-81
2022/09/03 06:26:22;;;;;;;;;10.50;10.50;;;;;20.92;73.72;100431.44;5089883;28;45702;-81
2022/09/03 06:28:48;;;;;;;;;10.75;10.75;;;;;20.88;73.61;100411.88;5092165;28;45255;-81
2022/09/03 06:31:16;;;;;;;;;12.75;12.75;;;;;20.91;73.23;100416.31;5092591;28;45350;-81
2022/09/03 06:33:42;;;;;;;;;13.25;12.25;;;;;20.83;72.69;100395.03;5073346;28;47203;-81
2022/09/03 06:36:10;;;;;;;;;10.00;10.00;;;;;21.12;73.09;100427.59;5091186;28;45529;-81
2022/09/03 06:38:36;;;;;;;;;14.25;12.75;;;;;21.22;72.95;100430.13;5091828;28;44895;-82
2022/09/03 06:41:05;;;;;;;;;13.75;13.75;;;;;21.25;72.66;100432.78;5089615;28;45051;-81
2022/09/03 06:43:34;;;;;;;;;13.00;13.00;;;;;21.27;72.35;100428.28;5091447;28;47410;-82
2022/09/03 06:46:09;;;;;;;;;12.25;11.25;;;;;21.28;72.69;100427.38;5091601;28;45121;-83
2022/09/03 06:48:36;;;;;;;;;13.25;12.25;;;;;21.01;72.42;100389.44;5092003;28;45130;-82
2022/09/03 06:51:07;;;;;;;;;13.00;10.75;;;;;21.22;72.68;100436.38;5091394;28;45037;-81
2022/09/03 06:53:38;;;;;;;;;11.75;10.75;;;;;21.08;72.58;100419.63;5089874;28;47014;-81
2022/09/03 06:56:07;;;;;;;;;12.25;10.50;;;;;21.10;72.54;100439.22;5088667;28;45336;-82
2022/09/03 06:58:36;;;;;;;;;10.25;10.25;;;;;21.03;72.75;100438.44;5092039;28;44971;-82
2022/09/03 07:01:13;;;;;;;;;11.25;10.75;;;;;20.99;73.47;100444.72;5072865;28;44956;-82
2022/09/03 07:03:41;;;;;;;;;10.00;9.50;;;;;20.98;73.29;100440.25;5091444;28;45126;-82
2022/09/03 07:06:13;;;;;;;;;12.00;12.00;;;;;20.87;73.40;100420.81;5091185;28;45552;-82
2022/09/03 07:08:38;;;;;;;;;10.50;8.75;;;;;20.86;72.96;100421.72;5091174;28;45041;-82
2022/09/03 07:11:08;;;;;;;;;14.25;13.50;;;;;20.94;73.30;100432.31;5089731;28;45045;-82
2022/09/03 07:13:40;;;;;;;;;12.25;12.25;;;;;20.85;73.12;100433.31;5091468;28;45214;-82
2022/09/03 07:16:07;;;;;;;;;14.50;11.50;;;;;20.84;73.43;100426.22;5090947;28;45633;-83
2022/09/03 07:18:33;;;;;;;;;10.00;10.00;;;;;20.85;73.02;100430.63;5091912;28;45375;-82
2022/09/03 07:21:00;;;;;;;;;10.00;10.00;;;;;20.85;74.14;100441.31;5091219;28;44956;-83
2022/09/03 07:23:27;;;;;;;;;8.25;8.00;;;;;20.72;74.26;100411.19;5090736;28;45101;-82
2022/09/03 07:25:57;;;;;;;;;11.00;8.50;;;;;20.87;74.12;100440.38;5087198;28;45214;-82
2022/09/03 07:28:25;;;;;;;;;12.75;11.50;;;;;20.94;73.91;100451.03;5090843;28;45073;-81
2022/09/03 07:30:51;;;;;;;;;9.25;9.00;;;;;20.83;73.91;100427.09;5091203;28;45017;-82
2022/09/03 07:33:17;;;;;;;;;10.25;9.25;;;;;20.92;74.04;100444.78;5090859;28;45216;-82
2022/09/03 07:35:44;;;;;;;;;10.00;10.00;;;;;21.01;74.21;100447.34;5089346;27;45052;-81
2022/09/03 07:38:10;;;;;;;;;8.50;8.25;;;;;21.16;74.09;100459.63;5093653;28;45061;-82
2022/09/03 07:40:35;;;;;;;;;8.25;7.75;;;;;21.24;73.21;100463.97;5093038;28;45089;-83
2022/09/03 07:43:03;;;;;;;;;11.75;11.75;;;;;21.26;73.07;100455.91;5094710;28;45507;-82
2022/09/03 07:45:28;;;;;;;;;9.75;9.00;;;;;21.28;73.61;100464.78;5076160;28;45166;-82
2022/09/03 07:47:55;;;;;;;;;10.00;9.00;;;;;21.24;73.05;100457.75;5094204;28;44975;-81
2022/09/03 07:50:20;;;;;;;;;9.25;9.25;;;;;21.27;73.71;100468.38;5094863;28;45021;-82
2022/09/03 07:52:46;;;;;;;;;8.00;8.00;;;;;21.20;73.50;100450.66;5093586;28;59621;-82
2022/09/03 07:55:12;;;;;;;;;8.00;7.75;;;;;21.34;73.65;100462.09;5094126;28;45092;-82
2022/09/03 07:57:37;;;;;;;;;9.00;9.00;;;;;21.31;73.03;100462.13;5093451;28;45257;-82
2022/09/03 08:00:05;;;;;;;;;10.25;9.25;;;;;21.39;72.96;100462.91;5094056;28;44965;-82
2022/09/03 08:02:30;;;;;;;;;8.25;8.25;;;;;21.38;72.86;100445.09;5075954;28;46749;-82
2022/09/03 08:04:56;;;;;;;;;9.25;8.00;;;;;21.43;73.04;100451.28;5093952;28;45048;-82
2022/09/03 08:07:21;;;;;;;;;10.67;10.00;;;;;21.45;72.49;100452.13;5093693;28;56459;-82
2022/09/03 08:09:46;;;;;;;;;9.00;8.33;;;;;21.39;72.45;100446.88;5093581;28;51852;-83
2022/09/03 08:12:12;;;;;;;;;9.00;8.00;;;;;21.37;71.98;100448.66;5092189;28;45118;-82
2022/09/03 08:14:37;;;;;;;;;9.25;8.00;;;;;21.56;73.66;100476.03;5093881;28;45010;-82
2022/09/03 08:17:03;;;;;;;;;7.50;7.25;;;;;21.58;73.23;100468.88;5093867;28;44970;-82
2022/09/03 08:19:28;;;;;;;;;6.50;6.50;;;;;21.69;72.57;100476.75;5094080;28;45158;-83
2022/09/03 08:21:54;;;;;;;;;3.67;3.67;;;;;21.63;72.20;100467.91;5093397;28;54551;-83
2022/09/03 08:24:23;;;;;;;;;8.67;8.33;;;;;21.64;72.19;100466.09;5093639;28;54318;-84
2022/09/03 08:26:49;;;;;;;;;6.25;6.25;;;;;21.77;72.18;100486.41;5092096;28;45210;-82
2022/09/03 08:29:15;;;;;;;;;6.50;6.50;;;;;21.82;72.19;100489.00;5075230;28;45074;-82
2022/09/03 08:31:40;;;;;;;;;6.75;6.00;;;;;21.89;72.48;100501.38;5093868;28;45119;-82
2022/09/03 08:34:06;;;;;;;;;8.00;8.00;;;;;21.94;71.88;100486.13;5094016;28;45265;-81
2022/09/03 08:36:34;;;;;;;;;5.50;5.50;;;;;22.29;71.99;100506.13;5093585;28;45100;-81
2022/09/03 08:39:03;;;;;;;;;7.00;7.00;;;;;22.45;70.93;100496.00;5094094;28;44934;-82
2022/09/03 08:41:50;;;;;;;;;8.00;8.00;;;;;22.66;70.30;100507.22;5091999;28;45745;-81
2022/09/03 08:44:29;;;;;;;;;7.00;6.75;;;;;22.76;69.93;100507.03;5093545;28;45317;-82
2022/09/03 08:47:12;;;;;;;;;7.00;7.00;;;;;22.76;70.02;100509.69;5093298;28;44956;-82
2022/09/03 08:49:47;;;;;;;;;8.00;7.25;;;;;22.63;69.78;100484.97;5093606;28;45168;-82
2022/09/03 08:52:33;;;;;;;;;8.75;8.00;;;;;22.70;70.28;100496.44;5093578;28;45819;-81
2022/09/03 08:55:18;;;;;;;;;8.75;8.00;;;;;22.99;69.68;100517.34;5091601;28;45487;-81
2022/09/03 08:57:51;;;;;;;;;6.75;6.25;;;;;23.16;69.39;100513.41;5074512;28;45049;-82
2022/09/03 09:00:18;;;;;;;;;6.75;6.75;;;;;23.38;68.97;100518.31;5093281;28;44931;-82
2022/09/03 09:02:58;;;;;;;;;8.00;7.00;;;;;23.49;68.21;100520.75;5093400;28;45190;-82
2022/09/03 09:05:33;;;;;;;;;7.75;7.75;;;;;23.59;67.46;100516.94;5092864;28;45171;-83
2022/09/03 09:08:15;;;;;;;;;6.50;6.50;;;;;23.71;67.79;100521.19;5093697;28;44936;-82
2022/09/03 09:10:46;;;;;;;;;8.00;7.25;;;;;23.72;67.09;100502.38;5091947;28;45198;-82
2022/09/03 09:13:23;;;;;;;;;6.00;6.00;;;;;23.85;66.61;100519.09;5093201;28;45446;-82
2022/09/03 09:16:07;;;;;;;;;6.25;6.25;;;;;23.84;67.13;100511.91;5093169;28;45146;-82
2022/09/03 09:19:04;;;;;;;;;7.50;7.50;;;;;23.96;66.82;100513.44;5093428;28;44972;-83
2022/09/03 09:21:38;;;;;;;;;8.25;8.00;;;;;24.12;66.33;100522.88;5093152;28;45054;-83
2022/09/03 09:24:12;;;;;;;;;7.00;7.00;;;;;24.11;65.68;100521.13;5091576;28;45392;-83
2022/09/03 09:26:40;;;;;;;;;9.00;7.50;;;;;24.09;65.86;100522.97;5089815;28;45443;-82
2022/09/03 09:29:11;;;;;;;;;6.00;5.75;;;;;23.99;65.75;100508.91;5092126;28;45322;-81
2022/09/03 09:31:39;;;;;;;;;6.75;6.50;;;;;24.09;65.22;100539.09;5092918;28;45061;-81
2022/09/03 09:34:06;;;;;;;;;7.00;6.25;;;;;24.02;65.62;100543.72;5093057;28;45064;-83
2022/09/03 09:36:41;;;;;;;;;6.50;6.50;;;;;23.92;65.48;100547.53;5091384;28;45366;-83
2022/09/03 09:39:08;;;;;;;;;8.00;8.00;;;;;23.77;65.55;100523.72;5092905;28;44987;-82
2022/09/03 09:41:34;;;;;;;;;10.00;9.00;;;;;23.64;65.73;100515.97;5092038;28;45198;-83
2022/09/03 09:44:01;;;;;;;;;9.50;8.50;;;;;23.79;65.78;100548.72;5091351;28;46797;-82
2022/09/03 09:46:35;;;;;;;;;8.00;7.25;;;;;23.77;65.39;100531.78;5092823;28;45046;-82
2022/09/03 09:49:01;;;;;;;;;9.00;8.00;;;;;23.90;65.33;100546.69;5093194;28;45089;-82
2022/09/03 09:51:29;;;;;;;;;7.00;6.00;;;;;23.97;66.02;100542.94;5092751;28;45057;-83
2022/09/03 09:54:11;;;;;;;;;11.00;9.00;;;;;23.96;65.13;100519.69;5092517;28;45234;-82
2022/09/03 09:56:36;;;;;;;;;8.50;7.50;;;;;24.19;64.41;100541.50;5091520;28;46052;-83
2022/09/03 09:59:03;;;;;;;;;7.50;7.50;;;;;24.16;64.73;100532.63;5092064;27;45675;-83
2022/09/03 10:01:30;;;;;;;;;6.00;6.00;;;;;24.27;63.95;100548.47;5091756;28;44882;-81
2022/09/03 10:03:58;;;;;;;;;7.00;7.00;;;;;24.27;63.79;100546.66;5092650;28;46124;-81
2022/09/03 10:09:16;;;;;;;;;9.00;8.25;;;;;24.32;64.53;100555.50;5092277;28;44938;-82
2022/09/03 10:11:50;;;;;;;;;9.50;9.00;;;;;24.32;64.37;100557.31;5090413;28;44988;-83
2022/09/03 10:14:23;;;;;;;;;10.00;9.50;;;;;24.07;63.71;100509.56;5092260;28;45387;-83
2022/09/03 10:17:03;;;;;;;;;9.75;8.00;;;;;24.34;63.82;100566.22;5091836;28;45455;-81
2022/09/03 10:20:29;;;;;;;;;9.75;9.25;;;;;24.35;63.57;100573.34;5091801;28;45091;-82
2022/09/03 10:23:27;;;;;;;;;9.25;9.00;;;;;24.41;63.80;100566.06;5064791;28;45862;-83
2022/09/03 10:25:55;;;;;;;;;9.00;9.00;;;;;24.46;63.62;100563.25;5072322;28;47120;-83
2022/09/03 10:28:25;;;;;;;;;7.00;7.00;;;;;24.51;63.42;100555.06;5092058;28;45653;-82
2022/09/03 10:31:21;;;;;;;;;7.00;6.75;;;;;24.48;63.15;100564.09;5091815;28;45153;-83
2022/09/03 10:34:25;;;;;;;;;4.75;4.75;;;;;24.36;63.23;100533.03;5092012;28;45076;-82
2022/09/03 10:37:37;;;;;;;;;6.00;6.00;;;;;24.55;62.78;100560.34;5039093;28;47463;-83
2022/09/03 10:40:02;;;;;;;;;5.00;4.75;;;;;24.54;62.66;100557.69;5008122;28;45562;-83
2022/09/03 10:42:46;;;;;;;;;7.67;6.00;;;;;24.56;62.92;100556.72;5074181;28;45056;-83
2022/09/03 10:45:17;;;;;;;;;7.75;7.50;;;;;24.50;62.40;100559.56;5091934;28;44967;-84
2022/09/03 10:48:15;;;;;;;;;6.00;6.00;;;;;24.42;62.71;100558.88;5073532;28;46663;-82
2022/09/03 10:50:55;;;;;;;;;7.75;6.00;;;;;24.43;62.45;100561.53;5080282;28;45484;-82
2022/09/03 10:53:32;;;;;;;;;5.75;5.50;;;;;24.47;62.34;100558.75;5091876;28;45072;-83
2022/09/03 10:56:27;;;;;;;;;6.00;6.00;;;;;24.47;62.19;100545.31;5090215;28;45090;-83
2022/09/03 10:59:09;;;;;;;;;4.00;4.00;;;;;24.44;62.16;100552.56;5087276;28;45631;-82
2022/09/03 11:01:34;;;;;;;;;3.00;3.00;;;;;24.50;61.93;100551.50;5092050;28;45452;-81
2022/09/03 11:04:22;;;;;;;;;6.00;5.00;;;;;24.54;61.17;100549.63;5073441;28;45103;-81
2022/09/03 11:07:04;;;;;;;;;4.75;4.75;;;;;24.48;61.32;100526.47;5091448;28;44977;-82
2022/09/03 11:09:44;;;;;;;;;3.25;3.25;;;;;24.67;61.33;100541.19;5090843;28;45205;-82
2022/09/03 11:12:20;;;;;;;;;5.00;5.00;;;;;24.70;61.22;100543.78;5072935;28;45272;-82
2022/09/03 11:15:06;;;;;;;;;4.25;4.25;;;;;24.82;60.46;100541.69;5091803;28;44983;-81
2022/09/03 11:17:51;;;;;;;;;5.00;5.00;;;;;24.89;60.41;100541.50;5090726;28;46418;-82
2022/09/03 11:20:21;;;;;;;;;5.50;5.50;;;;;25.02;60.41;100533.06;5090994;28;45952;-82
2022/09/03 11:22:52;;;;;;;;;6.00;6.00;;;;;25.15;60.18;100526.47;5091447;28;45210;-82
2022/09/03 11:25:24;;;;;;;;;5.25;5.00;;;;;25.19;60.23;100537.09;5089514;28;45131;-82
2022/09/03 11:28:07;;;;;;;;;5.00;4.25;;;;;25.09;59.86;100530.22;5090714;28;44858;-81
2022/09/03 11:31:12;;;;;;;;;4.50;4.50;;;;;24.93;59.78;100543.19;5091154;28;45607;-82
2022/09/03 11:33:47;;;;;;;;;4.25;4.00;;;;;24.70;59.74;100534.84;5091294;28;45494;-81
2022/09/03 11:36:13;;;;;;;;;3.00;3.00;;;;;24.57;59.63;100542.34;5090988;28;44934;-81
2022/09/03 11:38:39;;;;;;;;;3.00;3.00;;;;;24.42;60.38;100558.88;5091471;28;45255;-81
2022/09/03 11:41:23;;;;;;;;;5.00;4.75;;;;;24.25;60.26;100550.34;5090165;28;45493;-82
2022/09/03 11:43:48;;;;;;;;;5.00;4.25;;;;;24.12;61.13;100550.63;5091309;28;45505;-81
2022/09/03 11:46:20;;;;;;;;;5.00;4.50;;;;;24.27;61.63;100564.59;5091268;28;45079;-81
2022/09/03 11:48:47;;;;;;;;;5.25;5.00;;;;;24.33;63.42;100535.75;5091251;28;45025;-81